createdAt,value
2022-10-18T00:00:21.573Z,100607.66
2022-10-18T00:02:54.044Z,100586.16
2022-10-18T00:05:42.744Z,100635.19
2022-10-18T00:08:23.437Z,100642.84
2022-10-18T00:11:00.212Z,100618.91
2022-10-18T00:13:37.601Z,100610.88
2022-10-18T00:16:14.354Z,100610.75
2022-10-18T00:18:54.548Z,100578.56
2022-10-18T00:21:34.901Z,100587.97
2022-10-18T00:24:12.637Z,100583.44
2022-10-18T00:26:47.566Z,100588.66
2022-10-18T00:29:21.489Z,100609.88
2022-10-18T00:31:55.710Z,100566.22
2022-10-18T00:34:31.494Z,100608.91
2022-10-18T00:37:12.644Z,100546.22
2022-10-18T00:39:55.157Z,100583.66
2022-10-18T00:42:31.232Z,100576.06
2022-10-18T00:45:15.131Z,100589.94
2022-10-18T00:47:47.120Z,100549.19
2022-10-18T00:50:29.717Z,100547.59
2022-10-18T00:53:11.452Z,100519.09
2022-10-18T00:55:44.611Z,100538.31
2022-10-18T00:58:20.326Z,100539.47
2022-10-18T01:00:59.440Z,100565.63
2022-10-18T01:03:51.362Z,100533.19
2022-10-18T01:06:29.463Z,100531.50
2022-10-18T01:09:46.702Z,100515.88
2022-10-18T01:13:03.842Z,100544.81
2022-10-18T01:16:06.707Z,100557.03
2022-10-18T01:18:59.693Z,100548.47
2022-10-18T01:21:46.345Z,100547.69
2022-10-18T01:24:56.139Z,100549.69
2022-10-18T01:27:54.715Z,100525.06
2022-10-18T01:31:00.566Z,100560.69
2022-10-18T01:33:39.730Z,100553.78
2022-10-18T01:40:40.725Z,100539.97
2022-10-18T01:43:30.986Z,100541.91
2022-10-18T01:46:12.897Z,100540.25
2022-10-18T01:48:44.734Z,100518.09
2022-10-18T01:51:28.795Z,100503.22
2022-10-18T01:54:01.271Z,100486.75
2022-10-18T01:56:59.825Z,100517.78
2022-10-18T01:59:33.536Z,100512.94
2022-10-18T02:02:13.049Z,100516.06
2022-10-18T02:05:03.543Z,100515.56
2022-10-18T02:08:23.142Z,100508.09
2022-10-18T02:11:12.254Z,100481.28
2022-10-18T02:13:48.737Z,100488.94
2022-10-18T02:16:37.810Z,100471.06
2022-10-18T02:19:48.462Z,100471.16
2022-10-18T02:22:34.230Z,100479.81
2022-10-18T02:25:17.398Z,100508.28
2022-10-18T02:31:17.226Z,100488.50
2022-10-18T02:34:23.714Z,100492.19
2022-10-18T02:37:00.250Z,100476.84
2022-10-18T02:39:54.027Z,100457.88
2022-10-18T02:42:48.563Z,100459.88
2022-10-18T02:45:37.353Z,100451.75
2022-10-18T02:48:27.969Z,100450.41
2022-10-18T02:51:36.052Z,100476.59
2022-10-18T02:54:11.396Z,100429.72
2022-10-18T02:56:55.376Z,100449.72
2022-10-18T02:59:35.229Z,100424.63
2022-10-18T03:02:13.006Z,100423.75
2022-10-18T03:04:45.586Z,100416.94
2022-10-18T03:07:29.760Z,100410.34
2022-10-18T03:10:35.193Z,100422.47
2022-10-18T03:13:40.085Z,100422.78
2022-10-18T03:16:12.919Z,100372.22
2022-10-18T03:18:45.917Z,100397.94
2022-10-18T03:21:16.234Z,100430.50
2022-10-18T03:23:46.149Z,100408.19
2022-10-18T03:26:19.968Z,100372.22
2022-10-18T03:28:52.994Z,100403.88
2022-10-18T03:31:20.981Z,100359.25
2022-10-18T03:33:50.961Z,100357.06
2022-10-18T03:36:23.813Z,100363.50
2022-10-18T03:38:52.932Z,100344.78
2022-10-18T03:41:22.817Z,100348.16
2022-10-18T03:43:51.306Z,100386.50
2022-10-18T03:46:30.168Z,100381.63
2022-10-18T03:55:17.184Z,100356.06
2022-10-18T03:58:24.631Z,100332.13
2022-10-18T04:46:34.428Z,100285.66
2022-10-18T05:17:20.847Z,100290.44
2022-10-18T05:20:47.845Z,100246.56
2022-10-18T05:36:35.319Z,100287.81
2022-10-18T05:39:06.295Z,100279.31
2022-10-18T05:41:35.037Z,100255.41
2022-10-18T06:36:20.917Z,100160.53
2022-10-18T06:43:20.492Z,100127.59
2022-10-18T06:46:39.646Z,100116.88
2022-10-18T06:49:19.127Z,100074.25
2022-10-18T06:52:31.688Z,100101.66
2022-10-18T06:55:49.730Z,100036.91
2022-10-18T07:05:49.163Z,100056.25
2022-10-18T07:08:43.324Z,100055.31
2022-10-18T07:11:57.099Z,100011.47
2022-10-18T07:14:29.859Z,100056.56
2022-10-18T07:17:14.210Z,100010.69
2022-10-18T07:19:53.522Z,100006.59
2022-10-18T07:23:29.404Z,99993.19
2022-10-18T07:26:35.246Z,99984.94
2022-10-18T07:37:14.935Z,99893.25
2022-10-18T07:41:09.070Z,99916.19
2022-10-18T07:44:56.186Z,99876.75
2022-10-18T08:09:06.057Z,99737.00
2022-10-18T08:12:15.559Z,99762.66
2022-10-18T08:15:28.700Z,99744.59
2022-10-18T08:20:04.746Z,99725.19
2022-10-18T08:26:41.766Z,99714.66
2022-10-18T08:29:53.743Z,99641.03
2022-10-18T08:33:24.222Z,99601.53
2022-10-18T08:36:24.228Z,99572.38
2022-10-18T09:00:48.848Z,99406.78
2022-10-18T09:11:57.999Z,99525.28
2022-10-18T09:26:40.351Z,99444.31
2022-10-18T09:34:18.669Z,99410.72
2022-10-18T10:51:29.366Z,99300.44
2022-10-18T11:21:23.821Z,99252.53
2022-10-18T12:57:38.090Z,99250.16
2022-10-18T13:09:32.714Z,99268.59
2022-10-18T13:16:18.046Z,99260.19
2022-10-18T13:20:39.568Z,99260.53
2022-10-18T14:18:53.103Z,99301.69
2022-10-18T14:22:39.549Z,99290.47
2022-10-18T14:25:34.356Z,99318.06
2022-10-18T14:32:11.644Z,99323.53
2022-10-18T14:35:55.698Z,99298.56
2022-10-18T14:39:19.681Z,99296.75
2022-10-18T14:43:23.674Z,99317.28
2022-10-18T14:47:01.229Z,99337.88
2022-10-18T14:50:24.922Z,99344.00
2022-10-18T14:53:43.740Z,99349.25
2022-10-18T14:56:45.493Z,99329.50
2022-10-18T14:59:46.446Z,99362.94
2022-10-18T15:03:45.258Z,99376.06
2022-10-18T15:07:21.951Z,99336.03
2022-10-18T15:10:43.249Z,99366.91
2022-10-18T15:13:35.174Z,99379.03
2022-10-18T15:17:01.397Z,99346.19
2022-10-18T15:20:57.303Z,99385.66
2022-10-18T15:24:14.281Z,99396.50
2022-10-18T15:32:01.987Z,99408.91
2022-10-18T15:35:33.042Z,99419.28
2022-10-18T15:59:04.108Z,99466.38
2022-10-18T16:02:34.704Z,99459.88
2022-10-18T16:05:34.263Z,99440.75
2022-10-18T16:08:39.946Z,99468.28
2022-10-18T16:32:14.254Z,99490.91
2022-10-18T16:39:26.329Z,99463.56
2022-10-18T16:42:43.098Z,99518.41
2022-10-18T16:45:35.328Z,99482.63
2022-10-18T16:48:35.826Z,99481.75
2022-10-18T16:52:08.881Z,99538.94
2022-10-18T16:58:10.586Z,99560.31
2022-10-18T17:01:32.857Z,99544.22
2022-10-18T17:04:10.771Z,99560.03
2022-10-18T17:10:17.429Z,99564.16
2022-10-18T17:12:59.696Z,99562.38
2022-10-18T17:16:22.246Z,99530.53
2022-10-18T17:19:01.088Z,99510.50
2022-10-18T17:21:35.062Z,99516.72
2022-10-18T17:24:20.280Z,99532.53
2022-10-18T17:26:56.554Z,99524.47
2022-10-18T17:29:35.763Z,99536.06
2022-10-18T17:32:06.360Z,99556.66
2022-10-18T17:34:38.623Z,99521.47
2022-10-18T17:37:26.921Z,99560.50
2022-10-18T17:40:30.730Z,99570.81
2022-10-18T17:42:59.425Z,99589.25
2022-10-18T17:45:56.984Z,99543.56
2022-10-18T17:48:32.017Z,99549.28
2022-10-18T17:51:30.872Z,99535.78
2022-10-18T17:54:06.926Z,99555.72
2022-10-18T17:56:40.442Z,99566.41
2022-10-18T17:59:12.777Z,99577.63
2022-10-18T18:01:44.380Z,99517.53
2022-10-18T18:04:32.057Z,99553.13
2022-10-18T18:07:05.796Z,99604.31
2022-10-18T18:09:36.737Z,99552.09
2022-10-18T18:12:04.676Z,99590.00
2022-10-18T18:14:34.642Z,99528.03
2022-10-18T18:17:24.639Z,99572.31
2022-10-18T18:20:08.574Z,99541.91
2022-10-18T18:23:24.557Z,99582.03
2022-10-18T18:26:22.958Z,99554.13
2022-10-18T18:28:53.244Z,99593.53
2022-10-18T18:31:30.742Z,99572.78
2022-10-18T18:34:21.270Z,99543.34
2022-10-18T18:37:02.694Z,99569.59
2022-10-18T18:39:55.580Z,99535.50
2022-10-18T18:42:40.347Z,99563.00
2022-10-18T18:45:54.727Z,99549.91
2022-10-18T18:49:06.152Z,99571.63
2022-10-18T18:51:50.522Z,99557.22
2022-10-18T18:54:25.436Z,99592.25
2022-10-18T18:56:57.655Z,99561.72
2022-10-18T18:59:33.421Z,99524.75
2022-10-18T19:02:01.148Z,99553.47
2022-10-18T19:07:55.843Z,99571.81
2022-10-18T19:10:26.659Z,99545.78
2022-10-18T19:12:58.641Z,99558.28
2022-10-18T19:15:26.034Z,99583.09
2022-10-18T19:17:53.677Z,99587.88
2022-10-18T19:20:23.664Z,99591.41
2022-10-18T19:22:51.617Z,99592.97
2022-10-18T19:25:21.112Z,99595.16
2022-10-18T19:27:51.072Z,99567.13
2022-10-18T19:30:20.785Z,99565.38
2022-10-18T19:32:48.145Z,99572.03
2022-10-18T19:35:16.461Z,99595.31
2022-10-18T19:37:43.761Z,99579.59
2022-10-18T19:40:15.261Z,99568.97
2022-10-18T19:42:43.490Z,99593.09
2022-10-18T19:45:11.037Z,99592.56
2022-10-18T19:47:39.679Z,99578.03
2022-10-18T19:50:13.474Z,99570.63
2022-10-18T19:52:41.051Z,99563.34
2022-10-18T19:55:08.746Z,99558.03
2022-10-18T19:57:43.391Z,99579.56
2022-10-18T20:05:06.212Z,99573.69
2022-10-18T20:07:38.168Z,99559.47
2022-10-18T20:10:06.645Z,99559.25
2022-10-18T20:12:39.473Z,99560.38
2022-10-18T20:15:09.144Z,99583.59
2022-10-18T20:17:36.354Z,99562.66
2022-10-18T20:20:07.524Z,99564.47
2022-10-18T20:22:37.950Z,99529.59
2022-10-18T20:25:05.578Z,99558.63
2022-10-18T20:27:33.341Z,99529.13
2022-10-18T20:30:01.498Z,99528.38
2022-10-18T20:32:29.774Z,99537.66
2022-10-18T20:34:58.282Z,99523.09
2022-10-18T20:37:25.608Z,99526.94
2022-10-18T20:39:55.273Z,99531.97
2022-10-18T20:42:25.072Z,99530.31
2022-10-18T20:44:52.455Z,99537.34
2022-10-18T20:47:19.829Z,99539.03
2022-10-18T20:49:49.641Z,99504.97
2022-10-18T20:52:17.059Z,99523.69
2022-10-18T20:54:45.416Z,99523.88
2022-10-18T20:57:12.747Z,99514.50
2022-10-18T20:59:42.249Z,99514.91
2022-10-18T21:02:13.032Z,99528.03
2022-10-18T21:04:42.731Z,99504.31
2022-10-18T21:07:10.155Z,99501.81
2022-10-18T21:09:38.542Z,99515.38
2022-10-18T21:12:05.903Z,99535.59
2022-10-18T21:14:33.642Z,99546.47
2022-10-18T21:17:01.892Z,99555.53
2022-10-18T21:19:30.630Z,99541.69
2022-10-18T21:21:58.758Z,99535.31
2022-10-18T21:24:29.608Z,99547.28
2022-10-18T21:26:57.271Z,99525.84
2022-10-18T21:29:25.091Z,99535.50
2022-10-18T21:31:58.653Z,99546.09
2022-10-18T21:34:26.563Z,99496.91
2022-10-18T21:36:55.580Z,99503.41
2022-10-18T21:39:25.318Z,99518.13
2022-10-18T21:41:53.073Z,99536.09
2022-10-18T21:44:28.062Z,99527.38
2022-10-18T21:46:55.719Z,99536.25
2022-10-18T21:49:25.283Z,99538.03
2022-10-18T21:51:52.892Z,99544.22
2022-10-18T21:54:23.045Z,99519.72
2022-10-18T21:56:53.080Z,99520.63
2022-10-18T21:59:21.585Z,99521.84
2022-10-18T22:01:49.094Z,99501.63
2022-10-18T22:04:20.361Z,99505.00
2022-10-18T22:06:50.111Z,99494.63
2022-10-18T22:09:23.554Z,99529.88
2022-10-18T22:11:55.229Z,99482.00
2022-10-18T22:14:23.386Z,99493.78
2022-10-18T22:16:51.285Z,99501.53
2022-10-18T22:19:19.733Z,99513.13
2022-10-18T22:21:47.190Z,99501.06
2022-10-18T22:24:15.119Z,99507.91
2022-10-18T22:26:43.617Z,99511.19
2022-10-18T22:29:16.579Z,99501.63
2022-10-18T22:31:50.970Z,99490.03
2022-10-18T22:34:23.519Z,99452.63
2022-10-18T22:36:51.657Z,99447.09
2022-10-18T22:39:24.969Z,99482.56
2022-10-18T22:41:56.539Z,99460.66
2022-10-18T22:44:24.655Z,99471.97
2022-10-18T22:46:52.065Z,99502.03
2022-10-18T22:49:19.654Z,99477.84
2022-10-18T22:51:49.943Z,99464.94
2022-10-18T22:54:17.656Z,99473.28
2022-10-18T22:56:45.172Z,99468.34
2022-10-18T22:59:12.568Z,99479.72
2022-10-18T23:01:43.010Z,99461.41
2022-10-18T23:04:11.842Z,99436.91
2022-10-18T23:06:40.300Z,99455.06
2022-10-18T23:09:09.411Z,99418.66
2022-10-18T23:11:40.236Z,99442.72
2022-10-18T23:14:08.267Z,99460.75
2022-10-18T23:16:35.929Z,99440.44
2022-10-18T23:19:04.778Z,99437.03
2022-10-18T23:21:34.065Z,99429.63
2022-10-18T23:24:01.760Z,99420.34
2022-10-18T23:26:32.264Z,99446.63
2022-10-18T23:28:59.681Z,99417.66
2022-10-18T23:31:30.737Z,99404.38
2022-10-18T23:34:01.977Z,99412.41
2022-10-18T23:36:34.275Z,99422.13
2022-10-18T23:39:02.903Z,99411.19
2022-10-18T23:42:00.066Z,99419.16
2022-10-18T23:44:29.530Z,99420.47
2022-10-18T23:46:56.944Z,99398.22
2022-10-18T23:50:14.717Z,99399.22
2022-10-18T23:52:41.929Z,99396.03
2022-10-18T23:55:09.761Z,99388.84
2022-10-18T23:57:37.053Z,99389.59
